• Join FlightAware (Why Join?)
  • Login
  • US Flag 
11:16AM EDT


 

Airport Tracker/Info


-or-


 

Live Flight TrackerFlight Track Log ✈ LXJ342 ✈ 09-May-2013 ✈ KPGD - KBED

Flight Track Log - Related Links

Times and Time Zones

All times are in EDT time to prevent confusion due to time zone crossing. See the LXJ342 flight status page for this flight to view local times or setup timezone preferences in your user account.

Time Position Orientation Groundspeed Altitude Reporting Facility
EDT Latitude Longitude Course Direction KTS MPH feet Rate Location/Type
04:29PM 27.0378 -81.9422 16° North 218 251 3,000  Level Miami Center
04:30PM 27.1053 -81.9289 10° North 225 259 4,600 1,320 Climbing Miami Center
04:31PM 27.1772 -81.8994 20° North 249 287 5,700 660 Climbing Miami Center
04:32PM 27.2533 -81.8700 19° North 263 303 6,000 360 Climbing Miami Center
04:33PM 27.3231 -81.8428 19° North 269 310 6,500 840 Climbing Miami Center
04:34PM 27.5843 -81.7386 16° North  Level FlightAware Approximate
04:34PM 27.3953 -81.8108 21° North 269 310 7,700  Level Miami Center
04:35PM 27.4736 -81.7792 20° North 275 316 8,000 720 Climbing Miami Center
04:36PM 27.5475 -81.7494 20° North 275 316 9,200 1,980 Climbing Miami Center
04:37PM 27.6344 -81.7133 20° North 292 336 12,000 1,380 Climbing Miami Center
04:38PM 27.7169 -81.6769 21° North 318 366 12,000  Level Miami Center
04:39PM 27.8044 -81.6197 30° Northeast 339 390 12,000 480 Level Miami Center
04:40PM 27.8858 -81.5525 36° Northeast 356 410 13,000 1,980 Climbing Miami Center
04:41PM 27.9997 -81.5197 14° North 363 418 16,000 2,520 Climbing Miami Center
04:42PM 28.0989 -81.4839 18° North 375 432 18,100 2,160 Climbing Miami Center
04:43PM 28.2064 -81.4481 16° North 380 437 20,400 1,920 Climbing Miami Center
04:44PM 28.2950 -81.4189 16° North 391 450 22,000 1,740 Climbing Miami Center
04:45PM 28.4372 -81.3722 16° North 410 472 24,100 1,740 Climbing Jacksonville Center
04:46PM 28.5558 -81.3397 14° North 444 511 25,700 1,560 Climbing Jacksonville Center
04:47PM 28.6750 -81.3497 356° North 432 497 27,300 1,380 Climbing Jacksonville Center
04:48PM 28.8003 -81.3619 355° North 432 497 28,500 1,140 Climbing Jacksonville Center
04:49PM 28.9256 -81.3744 355° North 443 510 29,600 1,020 Climbing Jacksonville Center
04:50PM 29.0553 -81.3867 355° North 454 522 30,600 960 Climbing Jacksonville Center
04:51PM 29.1806 -81.3989 355° North 459 528 31,600 960 Climbing Jacksonville Center
04:52PM 29.3081 -81.4136 354° North 459 528 32,600 4,680 Climbing Jacksonville Center
04:53PM 29.4208 -81.4239 355° North 459 528 41,000 900 Climbing Jacksonville Center
04:54PM 29.5483 -81.4364 355° North 459 528 34,500 -2,760 Descending Jacksonville Center
04:55PM 29.6717 -81.4489 355° North 452 520 35,500 3,240 Climbing Jacksonville Center
04:56PM 29.7928 -81.4589 356° North 441 507 41,000 900 Climbing Jacksonville Center
04:57PM 29.9119 -81.4717 355° North 435 501 37,400 -1,320 Descending Jacksonville Center
04:58PM 30.0269 -81.4819 356° North 425 489 38,400 900 Climbing Jacksonville Center
04:59PM 30.1419 -81.4922 356° North 420 483 39,300 720 Climbing Jacksonville Center
05:00PM 30.2528 -81.5028 355° North 410 472 39,900 540 Climbing Jacksonville Center
05:01PM 30.3797 -81.4864 North 410 472 40,400 480 Climbing Jacksonville Center
05:02PM 30.4881 -81.4414 20° North 400 460 40,900 300 Climbing Jacksonville Center
05:03PM 30.5981 -81.3914 21° North 412 474 41,000  Climbing Jacksonville Center
05:04PM 30.7081 -81.3439 20° North 417 480 41,000  Level Jacksonville Center
05:05PM 30.8203 -81.2911 22° Northeast 422 486 41,000  Level Jacksonville Center
05:06PM 30.9322 -81.2408 21° North 427 491 41,000  Level Jacksonville Center
05:07PM 31.0444 -81.1881 22° Northeast 427 491 41,000  Level Jacksonville Center
05:08PM 31.1544 -81.1375 21° North 427 491 41,000  Level Jacksonville Center
05:09PM 31.2683 -81.0842 22° Northeast 432 497 41,000  Level Jacksonville Center
05:10PM 31.3761 -81.0311 23° Northeast 424 488 41,000  Level Jacksonville Center
05:11PM 31.4903 -80.9775 22° Northeast 429 494 41,000  Level Jacksonville Center
05:12PM 31.6044 -80.9289 20° North 429 494 41,000  Level Jacksonville Center
05:13PM 31.7142 -80.8753 23° Northeast 429 494 41,000  Level Jacksonville Center
05:14PM 31.8158 -80.8292 21° North 429 494 41,000  Level Jacksonville Center
05:15PM 31.9400 -80.7700 22° Northeast 429 494 41,000  Level Jacksonville Center
05:16PM 32.0519 -80.7183 21° North 429 494 41,000  Level Jacksonville Center
05:17PM 32.1594 -80.6667 22° Northeast 429 494 41,000  Level Jacksonville Center
05:18PM 32.2714 -80.6125 22° Northeast 422 486 41,000  Level Jacksonville Center
05:19PM 32.3808 -80.5606 22° Northeast 427 491 41,000  Level Jacksonville Center
05:20PM 32.4947 -80.5058 22° Northeast 433 498 41,000  Level Jacksonville Center
05:21PM 32.6106 -80.4511 22° Northeast 433 498 41,000  Level Jacksonville Center
05:22PM 32.7244 -80.3961 22° Northeast 439 505 41,000  Level Jacksonville Center
05:23PM 32.8381 -80.3411 22° Northeast 439 505 41,000  Level Jacksonville Center
05:24PM 32.9539 -80.2858 22° Northeast 434 499 41,000  Level Jacksonville Center
05:25PM 33.0778 -80.2253 22° Northeast 455 524 41,000  Level Jacksonville Center
05:26PM 33.1831 -80.1725 23° Northeast 442 509 41,000  Level Jacksonville Center
05:27PM 33.2906 -80.1244 20° North 450 518 41,000  Level Jacksonville Center
05:28PM 33.4019 -80.0686 23° Northeast 440 506 41,000  Level Jacksonville Center
05:29PM 33.5114 -80.0153 22° Northeast 435 501 41,000  Level Jacksonville Center
05:30PM 33.6231 -79.9619 22° Northeast 435 501 41,000  Level Jacksonville Center
05:31PM 33.7364 -79.9056 22° Northeast 435 501 41,000  Level Jacksonville Center
05:32PM 33.8456 -79.8494 23° Northeast 435 501 41,000  Level Jacksonville Center
05:33PM 33.9592 -79.7953 22° Northeast 430 495 41,000  Level Jacksonville Center
05:34PM 34.0683 -79.7414 22° Northeast 430 495 41,000  Level Jacksonville Center
05:35PM 34.1836 -79.6819 23° Northeast 435 501 41,000  Level Jacksonville Center
05:37PM 34.3956 -79.5736 23° Northeast 435 501 41,000  Level Washington Center
05:38PM 34.5058 -79.5158 23° Northeast 440 506 41,000  Level Washington Center
05:39PM 34.6186 -79.4558 24° Northeast 450 518 41,000  Level Washington Center
05:40PM 34.7331 -79.3981 23° Northeast 463 533 41,000  Level Washington Center
05:41PM 34.8497 -79.3375 23° Northeast 465 535 41,000  Level Washington Center
05:42PM 34.9644 -79.2744 24° Northeast 465 535 41,000  Level Washington Center
05:43PM 35.0747 -79.2161 23° Northeast 460 529 41,000  Level Washington Center
05:44PM 35.1869 -79.1575 23° Northeast 440 506 41,000  Level Washington Center
05:45PM 35.2914 -79.0808 31° Northeast 435 501 41,000  Level Washington Center
05:46PM 35.3983 -78.9911 34° Northeast 447 514 41,000  Level Washington Center
05:47PM 35.5031 -78.9039 34° Northeast 453 521 41,000  Level Washington Center
05:48PM 35.6119 -78.8164 33° Northeast 459 528 41,000  Level Washington Center
05:49PM 35.7167 -78.7258 35° Northeast 459 528 41,000  Level Washington Center
05:50PM 35.8042 -78.6500 35° Northeast 459 528 41,000  Level Washington Center
05:51PM 35.9214 -78.5519 34° Northeast 459 528 41,000  Level Washington Center
05:52PM 36.0278 -78.4583 35° Northeast 459 528 41,000  Level Washington Center
05:53PM 36.1344 -78.3669 35° Northeast 459 528 41,000  Level Washington Center
05:54PM 36.2428 -78.2756 34° Northeast 459 528 41,000  Level Washington Center
05:55PM 36.3472 -78.1836 35° Northeast 459 528 41,000  Level Washington Center
05:56PM 36.4619 -78.0817 36° Northeast 459 528 41,000  Level Washington Center
05:57PM 36.5639 -77.9917 35° Northeast 454 522 41,000  Level Washington Center
05:58PM 36.6658 -77.9042 35° Northeast 448 516 41,000  Level Washington Center
05:59PM 36.7656 -77.8164 35° Northeast 443 510 41,000  Level Washington Center
06:00PM 36.8672 -77.7258 35° Northeast 443 510 41,000  Level Washington Center
06:01PM 36.9711 -77.6378 34° Northeast 448 516 41,000  Level Washington Center
06:02PM 37.0769 -77.5442 35° Northeast 455 524 41,000  Level Washington Center
06:03PM 37.1828 -77.4506 35° Northeast 455 524 41,000  Level Washington Center
06:04PM 37.2906 -77.3567 35° Northeast 460 529 41,000  Level Washington Center
06:05PM 37.3983 -77.2622 35° Northeast 460 529 41,000  Level Washington Center
06:06PM 37.5081 -77.1653 35° Northeast 466 536 41,000  Level Washington Center
06:07PM 37.6136 -77.0653 37° Northeast 471 542 41,000  Level Washington Center
06:08PM 37.7192 -76.9675 36° Northeast 471 542 41,000  Level Washington Center
06:09PM 37.8222 -76.8719 36° Northeast 466 536 41,000  Level Washington Center
06:10PM 37.9256 -76.7792 35° Northeast 461 531 41,000  Level Washington Center
06:11PM 38.0306 -76.6831 36° Northeast 461 531 41,000  Level Washington Center
06:12PM 38.1336 -76.5897 35° Northeast 455 524 41,000  Level Washington Center
06:13PM 38.2364 -76.4958 36° Northeast 455 524 41,000  Level Washington Center
06:14PM 38.3247 -76.4122 37° Northeast 455 524 41,000  Level Washington Center
06:15PM 38.4381 -76.3100 35° Northeast 455 524 41,000  Level Washington Center
06:16PM 38.5322 -76.2208 37° Northeast 455 524 41,000  Level Washington Center
06:17PM 38.6411 -76.1233 35° Northeast 460 529 41,000  Level Washington Center
06:18PM 38.7478 -76.0256 36° Northeast 466 536 41,000  Level Washington Center
06:19PM 38.8525 -75.9222 38° Northeast 471 542 41,000 -60 Level Washington Center
06:20PM 38.9589 -75.8264 35° Northeast 471 542 40,900  Descending Washington Center
06:21PM 39.0611 -75.7253 38° Northeast 471 542 41,000  Climbing Washington Center
06:22PM 39.1656 -75.6292 35° Northeast 466 536 41,000  Level Washington Center
06:23PM 39.2717 -75.5300 36° Northeast 466 536 41,000 -420 Level Washington Center
06:24PM 39.3758 -75.4278 37° Northeast 466 536 40,200 -1,380 Descending Washington Center
06:25PM 39.4842 -75.3253 36° Northeast 472 543 38,400 -1,740 Descending Washington Center
06:27PM 39.7197 -75.0919 37° Northeast 456 525 34,300 -1,560 Descending New York Center
06:28PM 39.8275 -74.9875 37° Northeast 444 511 33,100 -1,620 Descending New York Center
06:29PM 39.9139 -74.9036 37° Northeast 434 499 31,100 -1,080 Descending New York Center
06:30PM 40.0036 -74.7869 45° Northeast 434 499 31,000 -60 Descending New York Center
06:31PM 40.0869 -74.6614 49° Northeast 446 513 31,000  Level New York Center
06:32PM 40.1644 -74.5219 54° Northeast 456 525 31,000 -60 Level New York Center
06:33PM 40.2444 -74.3603 57° Northeast 473 544 30,900 -600 Descending New York Center
06:34PM 40.3197 -74.2144 56° Northeast 473 544 29,900 -1,020 Descending New York Center
06:36PM 40.4906 -73.8917 55° Northeast 455 524 27,600 -1,020 Descending Boston Center
06:37PM 40.5608 -73.7539 56° Northeast 455 524 26,600 -1,020 Descending Boston Center
06:38PM 40.6228 -73.6242 58° Northeast 460 529 25,600 -1,020 Descending Boston Center
06:39PM 40.6950 -73.4939 54° Northeast 453 521 24,600 -1,020 Descending Boston Center
06:40PM 40.7608 -73.3553 58° Northeast 448 516 23,600 -960 Descending Boston Center
06:41PM 40.8514 -73.2358 45° Northeast 426 490 22,700 -1,080 Descending Boston Center
06:42PM 40.9394 -73.1353 41° Northeast 415 478 21,500 -1,260 Descending Boston Center
06:43PM 41.0378 -73.0564 31° Northeast 402 463 20,200 -1,200 Descending Boston Center
06:44PM 41.1319 -72.9747 33° Northeast 407 468 19,200 -600 Descending Boston Center
06:45PM 41.2261 -72.8983 31° Northeast 407 468 19,000 -300 Descending Boston Center
06:46PM 41.3181 -72.8214 32° Northeast 393 452 18,700 -840 Descending Boston Center
06:47PM 41.4142 -72.7444 31° Northeast 393 452 17,400 -1,500 Descending Boston Center
06:48PM 41.5039 -72.6675 33° Northeast 388 447 15,800 -1,500 Descending Boston Center
06:49PM 41.5853 -72.5956 33° Northeast 368 423 14,400 -1,320 Descending Boston Center
06:51PM 41.6647 -72.5233 34° Northeast 348 400 13,000 -960 Descending Boston Center
06:52PM 41.7481 -72.4317 39° Northeast 347 399 12,300 -720 Descending Boston Center
06:52PM 41.8003 -72.3761 38° Northeast 360 414 11,900 -720 Descending Boston Center
06:53PM 41.8336 -72.3397 39° Northeast 354 407 11,600 -840 Descending Boston Center
06:53PM 41.8833 -72.2811 41° Northeast 356 410 11,000 -600 Descending Boston Center
06:54PM 41.8856 -72.2783 43° Northeast 354 407 11,000  Level Boston Center
06:54PM 41.9603 -72.1972 39° Northeast 356 410 11,000  Level Boston Center
06:55PM 41.9853 -72.1692 40° Northeast 354 407 11,000 -1,020 Level Boston Center
06:55PM 42.0372 -72.1075 41° Northeast 308 354 9,900 -1,440 Descending Boston Center
06:56PM 42.0933 -72.0428 41° Northeast 289 333 8,600 -1,320 Descending Boston Center
06:57PM 42.1100 -72.0231 41° Northeast 293 337 8,300 -1,500 Descending Boston Center
06:57PM 42.1597 -71.9725 37° Northeast 281 323 7,000 -840 Descending Boston Center
06:58PM 42.2136 -71.9131 39° Northeast 279 321 6,900 -300 Descending Boston Center
06:59PM 42.2261 -71.8933 49° Northeast 286 329 6,700 -1,020 Descending Boston Center
07:00PM 42.2903 -71.8228 39° Northeast 280 322 5,600 -900 Descending Boston Center
07:01PM 42.3483 -71.7575 40° Northeast 275 316 5,000 -300 Descending Boston Center
07:02PM 42.4000 -71.7006 39° Northeast 275 316 5,000 -480 Level Boston Center
07:03PM 42.4667 -71.6000 48° Northeast 255 293 4,000 -1,140 Descending KA90
07:04PM 42.5000 -71.5167 61° Northeast 240 276 2,600 -960 Descending KA90
07:05PM 42.4833 -71.4333 105° East 208 239 2,100 -720 Descending KA90
07:06PM 42.4833 -71.3667 90° East 155 178 1,200 -840 Descending KA90
07:07PM 42.4667 -71.3167 114° Southeast 125 144 500 -720 Descending KA90